sensor_id;sensor_type;location;lat;lon;timestamp;P1;durP1;ratioP1;P2;durP2;ratioP2
21430;SDS011;10876;49.038;10.608;2022-08-19T00:00:16;19.70;;;13.98;;
21430;SDS011;10876;49.038;10.608;2022-08-19T00:02:44;18.48;;;13.02;;
21430;SDS011;10876;49.038;10.608;2022-08-19T00:05:12;20.90;;;13.75;;
21430;SDS011;10876;49.038;10.608;2022-08-19T00:07:42;19.38;;;13.68;;
21430;SDS011;10876;49.038;10.608;2022-08-19T00:10:11;18.00;;;12.60;;
21430;SDS011;10876;49.038;10.608;2022-08-19T00:12:40;19.13;;;12.85;;
21430;SDS011;10876;49.038;10.608;2022-08-19T00:15:08;18.10;;;13.27;;
21430;SDS011;10876;49.038;10.608;2022-08-19T00:17:37;21.90;;;13.40;;
21430;SDS011;10876;49.038;10.608;2022-08-19T00:20:05;22.35;;;15.45;;
21430;SDS011;10876;49.038;10.608;2022-08-19T00:22:33;22.10;;;16.05;;
21430;SDS011;10876;49.038;10.608;2022-08-19T00:25:01;23.70;;;14.63;;
21430;SDS011;10876;49.038;10.608;2022-08-19T00:27:29;22.25;;;15.80;;
21430;SDS011;10876;49.038;10.608;2022-08-19T00:29:56;24.48;;;16.95;;
21430;SDS011;10876;49.038;10.608;2022-08-19T00:32:24;26.77;;;16.70;;
21430;SDS011;10876;49.038;10.608;2022-08-19T00:34:51;23.25;;;15.82;;
21430;SDS011;10876;49.038;10.608;2022-08-19T00:37:18;25.33;;;17.10;;
21430;SDS011;10876;49.038;10.608;2022-08-19T00:39:47;27.73;;;17.83;;
21430;SDS011;10876;49.038;10.608;2022-08-19T00:42:17;28.58;;;18.00;;
21430;SDS011;10876;49.038;10.608;2022-08-19T00:44:46;28.85;;;18.70;;
21430;SDS011;10876;49.038;10.608;2022-08-19T00:47:13;27.20;;;17.30;;
21430;SDS011;10876;49.038;10.608;2022-08-19T00:49:41;29.75;;;18.70;;
21430;SDS011;10876;49.038;10.608;2022-08-19T00:52:16;27.30;;;18.50;;
21430;SDS011;10876;49.038;10.608;2022-08-19T00:54:47;26.75;;;18.00;;
21430;SDS011;10876;49.038;10.608;2022-08-19T00:57:18;29.65;;;18.00;;
21430;SDS011;10876;49.038;10.608;2022-08-19T00:59:51;28.77;;;19.38;;
21430;SDS011;10876;49.038;10.608;2022-08-19T01:02:20;29.23;;;18.98;;
21430;SDS011;10876;49.038;10.608;2022-08-19T01:04:48;29.63;;;18.52;;
21430;SDS011;10876;49.038;10.608;2022-08-19T01:07:15;31.33;;;18.98;;
21430;SDS011;10876;49.038;10.608;2022-08-19T01:09:42;29.73;;;19.35;;
21430;SDS011;10876;49.038;10.608;2022-08-19T01:12:09;25.67;;;16.83;;
21430;SDS011;10876;49.038;10.608;2022-08-19T01:14:37;31.70;;;18.15;;
21430;SDS011;10876;49.038;10.608;2022-08-19T01:17:06;29.10;;;17.75;;
21430;SDS011;10876;49.038;10.608;2022-08-19T01:19:36;25.73;;;16.08;;
21430;SDS011;10876;49.038;10.608;2022-08-19T01:22:07;27.05;;;17.40;;
21430;SDS011;10876;49.038;10.608;2022-08-19T01:24:39;26.63;;;17.15;;
21430;SDS011;10876;49.038;10.608;2022-08-19T01:27:06;25.27;;;17.52;;
21430;SDS011;10876;49.038;10.608;2022-08-19T01:29:34;25.02;;;16.35;;
21430;SDS011;10876;49.038;10.608;2022-08-19T01:32:04;26.30;;;17.35;;
21430;SDS011;10876;49.038;10.608;2022-08-19T01:34:32;24.45;;;16.92;;
21430;SDS011;10876;49.038;10.608;2022-08-19T01:36:59;25.10;;;16.67;;
21430;SDS011;10876;49.038;10.608;2022-08-19T01:39:32;27.88;;;17.90;;
21430;SDS011;10876;49.038;10.608;2022-08-19T01:42:00;25.52;;;17.17;;
21430;SDS011;10876;49.038;10.608;2022-08-19T01:44:28;29.02;;;18.63;;
21430;SDS011;10876;49.038;10.608;2022-08-19T01:46:55;29.20;;;16.70;;
21430;SDS011;10876;49.038;10.608;2022-08-19T01:49:23;24.20;;;16.85;;
21430;SDS011;10876;49.038;10.608;2022-08-19T01:51:52;24.48;;;16.15;;
21430;SDS011;10876;49.038;10.608;2022-08-19T01:54:20;26.88;;;16.73;;
21430;SDS011;10876;49.038;10.608;2022-08-19T01:56:48;27.55;;;16.73;;
21430;SDS011;10876;49.038;10.608;2022-08-19T01:59:19;23.65;;;15.63;;
21430;SDS011;10876;49.038;10.608;2022-08-19T02:01:48;25.88;;;15.88;;
21430;SDS011;10876;49.038;10.608;2022-08-19T02:04:15;28.77;;;18.58;;
21430;SDS011;10876;49.038;10.608;2022-08-19T02:06:42;29.52;;;18.85;;
21430;SDS011;10876;49.038;10.608;2022-08-19T02:09:09;28.75;;;18.38;;
21430;SDS011;10876;49.038;10.608;2022-08-19T02:11:36;27.55;;;17.60;;
21430;SDS011;10876;49.038;10.608;2022-08-19T02:14:05;29.42;;;18.67;;
21430;SDS011;10876;49.038;10.608;2022-08-19T02:16:35;32.85;;;18.33;;
21430;SDS011;10876;49.038;10.608;2022-08-19T02:19:02;24.70;;;16.33;;
21430;SDS011;10876;49.038;10.608;2022-08-19T02:21:30;27.23;;;17.13;;
21430;SDS011;10876;49.038;10.608;2022-08-19T02:23:58;26.40;;;17.55;;
21430;SDS011;10876;49.038;10.608;2022-08-19T02:26:25;25.33;;;17.08;;
21430;SDS011;10876;49.038;10.608;2022-08-19T02:28:53;26.75;;;17.25;;
21430;SDS011;10876;49.038;10.608;2022-08-19T02:31:22;24.10;;;16.58;;
21430;SDS011;10876;49.038;10.608;2022-08-19T02:33:52;28.42;;;16.60;;
21430;SDS011;10876;49.038;10.608;2022-08-19T02:36:19;25.48;;;17.20;;
21430;SDS011;10876;49.038;10.608;2022-08-19T02:38:46;29.85;;;17.52;;
21430;SDS011;10876;49.038;10.608;2022-08-19T02:41:14;24.83;;;16.33;;
21430;SDS011;10876;49.038;10.608;2022-08-19T02:43:43;29.00;;;18.02;;
21430;SDS011;10876;49.038;10.608;2022-08-19T02:46:11;28.58;;;17.65;;
21430;SDS011;10876;49.038;10.608;2022-08-19T02:48:46;29.25;;;18.58;;
21430;SDS011;10876;49.038;10.608;2022-08-19T02:51:20;32.78;;;20.50;;
21430;SDS011;10876;49.038;10.608;2022-08-19T02:53:48;29.50;;;18.58;;
21430;SDS011;10876;49.038;10.608;2022-08-19T02:56:16;30.10;;;17.90;;
21430;SDS011;10876;49.038;10.608;2022-08-19T02:58:43;29.40;;;18.33;;
21430;SDS011;10876;49.038;10.608;2022-08-19T03:01:10;27.02;;;17.60;;
21430;SDS011;10876;49.038;10.608;2022-08-19T03:03:45;27.27;;;18.23;;
21430;SDS011;10876;49.038;10.608;2022-08-19T03:06:13;32.38;;;19.13;;
21430;SDS011;10876;49.038;10.608;2022-08-19T03:08:44;31.23;;;19.15;;
21430;SDS011;10876;49.038;10.608;2022-08-19T03:11:13;30.90;;;19.23;;
21430;SDS011;10876;49.038;10.608;2022-08-19T03:13:41;32.08;;;19.80;;
21430;SDS011;10876;49.038;10.608;2022-08-19T03:16:08;26.52;;;16.92;;
21430;SDS011;10876;49.038;10.608;2022-08-19T03:18:36;30.20;;;19.30;;
21430;SDS011;10876;49.038;10.608;2022-08-19T03:21:04;31.98;;;20.17;;
21430;SDS011;10876;49.038;10.608;2022-08-19T03:23:32;32.65;;;18.92;;
21430;SDS011;10876;49.038;10.608;2022-08-19T03:26:02;35.33;;;20.23;;
21430;SDS011;10876;49.038;10.608;2022-08-19T03:28:31;29.52;;;18.83;;
21430;SDS011;10876;49.038;10.608;2022-08-19T03:31:00;33.35;;;20.27;;
21430;SDS011;10876;49.038;10.608;2022-08-19T03:33:30;32.80;;;19.70;;
21430;SDS011;10876;49.038;10.608;2022-08-19T03:36:08;35.38;;;20.88;;
21430;SDS011;10876;49.038;10.608;2022-08-19T03:38:38;31.48;;;19.55;;
21430;SDS011;10876;49.038;10.608;2022-08-19T03:41:10;33.05;;;19.40;;
21430;SDS011;10876;49.038;10.608;2022-08-19T03:43:40;31.15;;;18.40;;
21430;SDS011;10876;49.038;10.608;2022-08-19T03:46:10;29.30;;;18.55;;
21430;SDS011;10876;49.038;10.608;2022-08-19T03:48:39;33.10;;;20.10;;
21430;SDS011;10876;49.038;10.608;2022-08-19T03:51:14;31.30;;;18.88;;
21430;SDS011;10876;49.038;10.608;2022-08-19T03:53:44;27.80;;;18.40;;
21430;SDS011;10876;49.038;10.608;2022-08-19T03:58:56;35.60;;;20.55;;
21430;SDS011;10876;49.038;10.608;2022-08-19T04:01:26;29.95;;;18.13;;
21430;SDS011;10876;49.038;10.608;2022-08-19T04:03:55;33.05;;;19.45;;
21430;SDS011;10876;49.038;10.608;2022-08-19T04:06:24;32.63;;;18.35;;
21430;SDS011;10876;49.038;10.608;2022-08-19T04:08:53;35.92;;;20.20;;
21430;SDS011;10876;49.038;10.608;2022-08-19T04:11:21;36.03;;;20.92;;
21430;SDS011;10876;49.038;10.608;2022-08-19T04:13:52;37.85;;;21.35;;
21430;SDS011;10876;49.038;10.608;2022-08-19T04:16:20;38.97;;;22.77;;
21430;SDS011;10876;49.038;10.608;2022-08-19T04:18:48;39.60;;;21.45;;
21430;SDS011;10876;49.038;10.608;2022-08-19T04:21:16;37.08;;;21.70;;
21430;SDS011;10876;49.038;10.608;2022-08-19T04:23:45;33.67;;;19.10;;
21430;SDS011;10876;49.038;10.608;2022-08-19T04:26:12;34.20;;;19.85;;
21430;SDS011;10876;49.038;10.608;2022-08-19T04:28:41;32.60;;;19.23;;
21430;SDS011;10876;49.038;10.608;2022-08-19T04:31:11;34.58;;;18.70;;
21430;SDS011;10876;49.038;10.608;2022-08-19T04:33:39;38.35;;;22.10;;
21430;SDS011;10876;49.038;10.608;2022-08-19T04:36:06;36.47;;;21.13;;
21430;SDS011;10876;49.038;10.608;2022-08-19T04:38:35;40.05;;;21.60;;
21430;SDS011;10876;49.038;10.608;2022-08-19T04:41:02;37.00;;;20.55;;
21430;SDS011;10876;49.038;10.608;2022-08-19T04:43:47;40.88;;;22.20;;
21430;SDS011;10876;49.038;10.608;2022-08-19T04:46:17;41.30;;;21.23;;
21430;SDS011;10876;49.038;10.608;2022-08-19T04:48:45;38.17;;;21.05;;
21430;SDS011;10876;49.038;10.608;2022-08-19T04:51:12;39.08;;;21.80;;
21430;SDS011;10876;49.038;10.608;2022-08-19T04:53:40;37.22;;;20.95;;
21430;SDS011;10876;49.038;10.608;2022-08-19T04:56:08;35.03;;;19.23;;
21430;SDS011;10876;49.038;10.608;2022-08-19T04:58:37;38.88;;;21.20;;
21430;SDS011;10876;49.038;10.608;2022-08-19T05:01:06;40.88;;;21.00;;
21430;SDS011;10876;49.038;10.608;2022-08-19T05:03:36;34.35;;;19.10;;
21430;SDS011;10876;49.038;10.608;2022-08-19T05:06:05;33.28;;;18.50;;
21430;SDS011;10876;49.038;10.608;2022-08-19T05:08:33;35.80;;;20.45;;
21430;SDS011;10876;49.038;10.608;2022-08-19T05:11:06;30.70;;;17.90;;
21430;SDS011;10876;49.038;10.608;2022-08-19T05:13:36;34.95;;;19.33;;
21430;SDS011;10876;49.038;10.608;2022-08-19T05:16:03;36.00;;;20.42;;
21430;SDS011;10876;49.038;10.608;2022-08-19T05:18:30;36.38;;;19.58;;
21430;SDS011;10876;49.038;10.608;2022-08-19T05:21:18;32.30;;;19.20;;
21430;SDS011;10876;49.038;10.608;2022-08-19T05:24:03;34.22;;;19.42;;
21430;SDS011;10876;49.038;10.608;2022-08-19T05:26:34;33.10;;;19.58;;
21430;SDS011;10876;49.038;10.608;2022-08-19T05:29:01;34.45;;;19.90;;
21430;SDS011;10876;49.038;10.608;2022-08-19T05:31:31;34.38;;;18.90;;
21430;SDS011;10876;49.038;10.608;2022-08-19T05:33:58;31.95;;;18.00;;
21430;SDS011;10876;49.038;10.608;2022-08-19T05:36:27;37.53;;;20.02;;
21430;SDS011;10876;49.038;10.608;2022-08-19T05:38:54;31.65;;;19.10;;
21430;SDS011;10876;49.038;10.608;2022-08-19T05:41:22;36.13;;;20.35;;
21430;SDS011;10876;49.038;10.608;2022-08-19T05:43:54;33.40;;;19.08;;
21430;SDS011;10876;49.038;10.608;2022-08-19T05:46:21;34.10;;;18.05;;
21430;SDS011;10876;49.038;10.608;2022-08-19T05:48:48;33.42;;;19.67;;
21430;SDS011;10876;49.038;10.608;2022-08-19T05:51:15;32.80;;;18.45;;
21430;SDS011;10876;49.038;10.608;2022-08-19T05:53:44;37.63;;;19.85;;
21430;SDS011;10876;49.038;10.608;2022-08-19T05:56:12;31.42;;;18.33;;
21430;SDS011;10876;49.038;10.608;2022-08-19T05:58:41;39.17;;;19.45;;
21430;SDS011;10876;49.038;10.608;2022-08-19T06:01:10;35.47;;;19.77;;
21430;SDS011;10876;49.038;10.608;2022-08-19T06:03:39;32.00;;;18.73;;
21430;SDS011;10876;49.038;10.608;2022-08-19T06:06:06;37.15;;;20.83;;
21430;SDS011;10876;49.038;10.608;2022-08-19T06:08:34;33.13;;;18.90;;
21430;SDS011;10876;49.038;10.608;2022-08-19T06:11:15;30.38;;;17.98;;
21430;SDS011;10876;49.038;10.608;2022-08-19T06:13:44;32.10;;;18.50;;
21430;SDS011;10876;49.038;10.608;2022-08-19T06:16:16;38.15;;;22.27;;
21430;SDS011;10876;49.038;10.608;2022-08-19T06:18:47;35.08;;;19.45;;
21430;SDS011;10876;49.038;10.608;2022-08-19T06:21:17;35.33;;;20.70;;
21430;SDS011;10876;49.038;10.608;2022-08-19T06:23:45;37.20;;;21.02;;
21430;SDS011;10876;49.038;10.608;2022-08-19T06:26:15;37.83;;;21.02;;
21430;SDS011;10876;49.038;10.608;2022-08-19T06:28:43;37.95;;;20.92;;
21430;SDS011;10876;49.038;10.608;2022-08-19T06:31:12;35.90;;;21.20;;
21430;SDS011;10876;49.038;10.608;2022-08-19T06:33:41;39.58;;;20.58;;
21430;SDS011;10876;49.038;10.608;2022-08-19T06:36:15;37.22;;;21.02;;
21430;SDS011;10876;49.038;10.608;2022-08-19T06:38:43;39.97;;;20.52;;
21430;SDS011;10876;49.038;10.608;2022-08-19T06:41:10;37.28;;;21.02;;
21430;SDS011;10876;49.038;10.608;2022-08-19T06:43:38;37.80;;;21.08;;
21430;SDS011;10876;49.038;10.608;2022-08-19T06:46:09;37.65;;;21.27;;
21430;SDS011;10876;49.038;10.608;2022-08-19T06:48:38;29.58;;;17.55;;
21430;SDS011;10876;49.038;10.608;2022-08-19T06:51:05;33.97;;;19.60;;
21430;SDS011;10876;49.038;10.608;2022-08-19T06:53:32;37.58;;;19.83;;
21430;SDS011;10876;49.038;10.608;2022-08-19T06:56:00;33.13;;;19.80;;
21430;SDS011;10876;49.038;10.608;2022-08-19T06:58:27;35.78;;;19.70;;
21430;SDS011;10876;49.038;10.608;2022-08-19T07:00:59;32.63;;;18.42;;
21430;SDS011;10876;49.038;10.608;2022-08-19T07:03:28;35.72;;;19.60;;
21430;SDS011;10876;49.038;10.608;2022-08-19T07:05:57;32.55;;;18.48;;
21430;SDS011;10876;49.038;10.608;2022-08-19T07:08:25;36.33;;;18.70;;
21430;SDS011;10876;49.038;10.608;2022-08-19T07:10:52;34.42;;;19.90;;
21430;SDS011;10876;49.038;10.608;2022-08-19T07:13:20;33.10;;;18.50;;
21430;SDS011;10876;49.038;10.608;2022-08-19T07:15:47;34.58;;;18.40;;
21430;SDS011;10876;49.038;10.608;2022-08-19T07:18:17;31.83;;;18.50;;
21430;SDS011;10876;49.038;10.608;2022-08-19T07:20:45;33.15;;;18.63;;
21430;SDS011;10876;49.038;10.608;2022-08-19T07:23:12;35.92;;;19.88;;
21430;SDS011;10876;49.038;10.608;2022-08-19T07:25:40;33.95;;;19.65;;
21430;SDS011;10876;49.038;10.608;2022-08-19T07:28:08;32.67;;;19.05;;
21430;SDS011;10876;49.038;10.608;2022-08-19T07:30:38;31.85;;;18.80;;
21430;SDS011;10876;49.038;10.608;2022-08-19T07:33:06;32.83;;;18.73;;
21430;SDS011;10876;49.038;10.608;2022-08-19T07:35:34;31.42;;;18.83;;
21430;SDS011;10876;49.038;10.608;2022-08-19T07:38:01;30.08;;;18.25;;
21430;SDS011;10876;49.038;10.608;2022-08-19T07:40:29;33.40;;;19.13;;
21430;SDS011;10876;49.038;10.608;2022-08-19T07:42:57;33.08;;;19.45;;
21430;SDS011;10876;49.038;10.608;2022-08-19T07:45:24;28.58;;;17.85;;
21430;SDS011;10876;49.038;10.608;2022-08-19T07:47:52;32.55;;;18.95;;
21430;SDS011;10876;49.038;10.608;2022-08-19T07:50:20;32.30;;;18.40;;
21430;SDS011;10876;49.038;10.608;2022-08-19T07:52:48;34.22;;;19.70;;
21430;SDS011;10876;49.038;10.608;2022-08-19T07:55:17;33.22;;;18.83;;
21430;SDS011;10876;49.038;10.608;2022-08-19T07:57:46;27.25;;;16.90;;
21430;SDS011;10876;49.038;10.608;2022-08-19T08:00:14;33.80;;;19.80;;
21430;SDS011;10876;49.038;10.608;2022-08-19T08:02:41;35.10;;;19.40;;
21430;SDS011;10876;49.038;10.608;2022-08-19T08:05:08;33.13;;;19.27;;
21430;SDS011;10876;49.038;10.608;2022-08-19T08:07:54;30.63;;;18.35;;
21430;SDS011;10876;49.038;10.608;2022-08-19T08:10:39;33.97;;;18.73;;
21430;SDS011;10876;49.038;10.608;2022-08-19T08:13:06;33.00;;;18.05;;
21430;SDS011;10876;49.038;10.608;2022-08-19T08:15:33;31.35;;;18.35;;
21430;SDS011;10876;49.038;10.608;2022-08-19T08:18:02;32.35;;;17.58;;
21430;SDS011;10876;49.038;10.608;2022-08-19T08:20:29;32.30;;;19.45;;
21430;SDS011;10876;49.038;10.608;2022-08-19T08:22:57;32.42;;;18.30;;
21430;SDS011;10876;49.038;10.608;2022-08-19T08:25:42;32.75;;;18.50;;
21430;SDS011;10876;49.038;10.608;2022-08-19T08:28:08;32.92;;;19.25;;
21430;SDS011;10876;49.038;10.608;2022-08-19T08:30:35;30.27;;;18.40;;
21430;SDS011;10876;49.038;10.608;2022-08-19T08:33:06;30.00;;;17.83;;
21430;SDS011;10876;49.038;10.608;2022-08-19T08:35:33;31.52;;;18.08;;
21430;SDS011;10876;49.038;10.608;2022-08-19T08:38:02;30.48;;;18.35;;
21430;SDS011;10876;49.038;10.608;2022-08-19T08:40:31;30.33;;;18.40;;
21430;SDS011;10876;49.038;10.608;2022-08-19T08:43:06;32.85;;;17.92;;
21430;SDS011;10876;49.038;10.608;2022-08-19T08:45:38;27.02;;;17.00;;
21430;SDS011;10876;49.038;10.608;2022-08-19T08:48:16;27.08;;;16.75;;
21430;SDS011;10876;49.038;10.608;2022-08-19T08:50:47;29.15;;;17.83;;
21430;SDS011;10876;49.038;10.608;2022-08-19T08:53:19;28.20;;;17.45;;
21430;SDS011;10876;49.038;10.608;2022-08-19T08:55:47;28.88;;;17.27;;
21430;SDS011;10876;49.038;10.608;2022-08-19T08:58:16;28.75;;;16.88;;
21430;SDS011;10876;49.038;10.608;2022-08-19T09:00:51;30.65;;;17.75;;
21430;SDS011;10876;49.038;10.608;2022-08-19T09:03:19;28.35;;;16.95;;
21430;SDS011;10876;49.038;10.608;2022-08-19T09:05:50;24.05;;;16.40;;
21430;SDS011;10876;49.038;10.608;2022-08-19T09:08:35;28.23;;;16.85;;
21430;SDS011;10876;49.038;10.608;2022-08-19T09:11:10;26.02;;;16.45;;
21430;SDS011;10876;49.038;10.608;2022-08-19T09:13:45;26.48;;;16.20;;
21430;SDS011;10876;49.038;10.608;2022-08-19T09:16:25;23.10;;;15.02;;
21430;SDS011;10876;49.038;10.608;2022-08-19T09:18:54;25.25;;;16.95;;
21430;SDS011;10876;49.038;10.608;2022-08-19T09:21:24;26.92;;;16.02;;
21430;SDS011;10876;49.038;10.608;2022-08-19T09:23:54;25.10;;;16.05;;
21430;SDS011;10876;49.038;10.608;2022-08-19T09:26:22;27.65;;;15.32;;
21430;SDS011;10876;49.038;10.608;2022-08-19T09:28:50;24.50;;;15.77;;
21430;SDS011;10876;49.038;10.608;2022-08-19T09:31:20;25.73;;;16.17;;
21430;SDS011;10876;49.038;10.608;2022-08-19T09:33:48;26.83;;;15.63;;
21430;SDS011;10876;49.038;10.608;2022-08-19T09:36:17;25.42;;;15.82;;
21430;SDS011;10876;49.038;10.608;2022-08-19T09:38:45;25.27;;;16.13;;
21430;SDS011;10876;49.038;10.608;2022-08-19T09:41:16;27.15;;;15.90;;
21430;SDS011;10876;49.038;10.608;2022-08-19T09:43:46;24.40;;;16.27;;
21430;SDS011;10876;49.038;10.608;2022-08-19T09:46:17;26.13;;;16.42;;
21430;SDS011;10876;49.038;10.608;2022-08-19T09:48:46;25.67;;;16.17;;
21430;SDS011;10876;49.038;10.608;2022-08-19T09:51:16;24.63;;;14.90;;
21430;SDS011;10876;49.038;10.608;2022-08-19T09:53:45;24.58;;;15.93;;
21430;SDS011;10876;49.038;10.608;2022-08-19T09:56:16;22.70;;;15.15;;
21430;SDS011;10876;49.038;10.608;2022-08-19T09:58:45;24.13;;;15.40;;
21430;SDS011;10876;49.038;10.608;2022-08-19T10:01:15;25.55;;;15.73;;
21430;SDS011;10876;49.038;10.608;2022-08-19T10:03:46;24.48;;;15.55;;
21430;SDS011;10876;49.038;10.608;2022-08-19T10:06:14;24.15;;;15.88;;
21430;SDS011;10876;49.038;10.608;2022-08-19T10:08:41;22.98;;;14.52;;
21430;SDS011;10876;49.038;10.608;2022-08-19T10:11:08;26.15;;;15.30;;
21430;SDS011;10876;49.038;10.608;2022-08-19T10:13:37;24.65;;;15.60;;
21430;SDS011;10876;49.038;10.608;2022-08-19T10:16:05;25.45;;;14.35;;
21430;SDS011;10876;49.038;10.608;2022-08-19T10:18:35;24.95;;;15.20;;
21430;SDS011;10876;49.038;10.608;2022-08-19T10:21:04;24.67;;;14.70;;
21430;SDS011;10876;49.038;10.608;2022-08-19T10:23:34;23.88;;;15.27;;
21430;SDS011;10876;49.038;10.608;2022-08-19T10:26:03;21.77;;;14.57;;
21430;SDS011;10876;49.038;10.608;2022-08-19T10:28:31;22.45;;;15.10;;
21430;SDS011;10876;49.038;10.608;2022-08-19T10:31:04;24.58;;;15.00;;
21430;SDS011;10876;49.038;10.608;2022-08-19T10:33:32;23.10;;;15.45;;
21430;SDS011;10876;49.038;10.608;2022-08-19T10:36:00;21.95;;;15.07;;
21430;SDS011;10876;49.038;10.608;2022-08-19T10:38:27;21.50;;;14.10;;
21430;SDS011;10876;49.038;10.608;2022-08-19T10:40:56;24.30;;;14.73;;
21430;SDS011;10876;49.038;10.608;2022-08-19T10:43:23;27.15;;;16.80;;
21430;SDS011;10876;49.038;10.608;2022-08-19T10:45:54;23.45;;;15.02;;
21430;SDS011;10876;49.038;10.608;2022-08-19T10:48:25;23.50;;;15.32;;
21430;SDS011;10876;49.038;10.608;2022-08-19T10:50:52;21.63;;;14.48;;
21430;SDS011;10876;49.038;10.608;2022-08-19T10:53:37;21.83;;;14.77;;
21430;SDS011;10876;49.038;10.608;2022-08-19T10:56:04;21.88;;;14.10;;
21430;SDS011;10876;49.038;10.608;2022-08-19T10:58:49;25.70;;;15.45;;
21430;SDS011;10876;49.038;10.608;2022-08-19T11:01:16;20.85;;;14.98;;
21430;SDS011;10876;49.038;10.608;2022-08-19T11:03:44;21.90;;;14.75;;
21430;SDS011;10876;49.038;10.608;2022-08-19T11:06:11;22.48;;;13.85;;
21430;SDS011;10876;49.038;10.608;2022-08-19T11:08:38;23.52;;;14.90;;
21430;SDS011;10876;49.038;10.608;2022-08-19T11:11:07;26.90;;;15.93;;
21430;SDS011;10876;49.038;10.608;2022-08-19T11:13:35;24.90;;;15.38;;
21430;SDS011;10876;49.038;10.608;2022-08-19T11:16:05;26.63;;;15.95;;
21430;SDS011;10876;49.038;10.608;2022-08-19T11:18:34;27.30;;;15.88;;
21430;SDS011;10876;49.038;10.608;2022-08-19T11:21:07;27.05;;;15.85;;
21430;SDS011;10876;49.038;10.608;2022-08-19T11:23:36;21.77;;;14.75;;
21430;SDS011;10876;49.038;10.608;2022-08-19T11:26:03;25.67;;;16.00;;
21430;SDS011;10876;49.038;10.608;2022-08-19T11:28:30;24.65;;;15.45;;
21430;SDS011;10876;49.038;10.608;2022-08-19T11:30:57;23.52;;;15.70;;
21430;SDS011;10876;49.038;10.608;2022-08-19T11:33:24;27.80;;;16.38;;
21430;SDS011;10876;49.038;10.608;2022-08-19T11:35:51;30.08;;;16.85;;
21430;SDS011;10876;49.038;10.608;2022-08-19T11:38:20;33.30;;;19.05;;
21430;SDS011;10876;49.038;10.608;2022-08-19T11:40:53;33.63;;;19.92;;
21430;SDS011;10876;49.038;10.608;2022-08-19T11:43:21;35.13;;;19.33;;
21430;SDS011;10876;49.038;10.608;2022-08-19T11:45:48;36.35;;;20.42;;
21430;SDS011;10876;49.038;10.608;2022-08-19T11:48:15;38.50;;;22.13;;
21430;SDS011;10876;49.038;10.608;2022-08-19T11:50:47;40.17;;;21.45;;
21430;SDS011;10876;49.038;10.608;2022-08-19T11:53:14;41.28;;;22.58;;
21430;SDS011;10876;49.038;10.608;2022-08-19T11:55:42;38.22;;;23.02;;
21430;SDS011;10876;49.038;10.608;2022-08-19T11:58:10;42.25;;;23.55;;
21430;SDS011;10876;49.038;10.608;2022-08-19T12:00:37;37.85;;;22.67;;
21430;SDS011;10876;49.038;10.608;2022-08-19T12:03:04;43.30;;;23.42;;
21430;SDS011;10876;49.038;10.608;2022-08-19T12:05:32;48.30;;;24.98;;
21430;SDS011;10876;49.038;10.608;2022-08-19T12:07:59;40.47;;;22.95;;
21430;SDS011;10876;49.038;10.608;2022-08-19T12:10:26;42.05;;;24.08;;
21430;SDS011;10876;49.038;10.608;2022-08-19T12:12:54;41.40;;;23.92;;
21430;SDS011;10876;49.038;10.608;2022-08-19T12:15:21;42.78;;;24.77;;
21430;SDS011;10876;49.038;10.608;2022-08-19T12:17:48;43.30;;;24.83;;
21430;SDS011;10876;49.038;10.608;2022-08-19T12:20:15;40.80;;;23.88;;
21430;SDS011;10876;49.038;10.608;2022-08-19T12:22:45;42.90;;;23.58;;
21430;SDS011;10876;49.038;10.608;2022-08-19T12:25:20;41.95;;;24.27;;
21430;SDS011;10876;49.038;10.608;2022-08-19T12:27:47;40.25;;;23.35;;
21430;SDS011;10876;49.038;10.608;2022-08-19T12:30:18;41.67;;;24.15;;
21430;SDS011;10876;49.038;10.608;2022-08-19T12:32:45;39.08;;;23.90;;
21430;SDS011;10876;49.038;10.608;2022-08-19T12:35:12;46.33;;;23.85;;
21430;SDS011;10876;49.038;10.608;2022-08-19T12:37:39;46.38;;;25.60;;
21430;SDS011;10876;49.038;10.608;2022-08-19T12:40:09;45.05;;;26.05;;
21430;SDS011;10876;49.038;10.608;2022-08-19T12:42:38;50.58;;;27.38;;
21430;SDS011;10876;49.038;10.608;2022-08-19T12:45:09;52.63;;;27.58;;
21430;SDS011;10876;49.038;10.608;2022-08-19T12:47:40;48.63;;;26.95;;
21430;SDS011;10876;49.038;10.608;2022-08-19T12:50:08;47.72;;;27.13;;
21430;SDS011;10876;49.038;10.608;2022-08-19T12:52:35;48.53;;;26.25;;
21430;SDS011;10876;49.038;10.608;2022-08-19T12:55:04;47.60;;;27.75;;
21430;SDS011;10876;49.038;10.608;2022-08-19T12:57:32;45.80;;;26.13;;
21430;SDS011;10876;49.038;10.608;2022-08-19T13:00:03;42.22;;;24.88;;
21430;SDS011;10876;49.038;10.608;2022-08-19T13:02:35;43.30;;;25.95;;
21430;SDS011;10876;49.038;10.608;2022-08-19T13:05:04;42.13;;;25.08;;
21430;SDS011;10876;49.038;10.608;2022-08-19T13:07:33;47.15;;;26.58;;
21430;SDS011;10876;49.038;10.608;2022-08-19T13:10:00;45.40;;;25.42;;
21430;SDS011;10876;49.038;10.608;2022-08-19T13:12:27;42.08;;;24.83;;
21430;SDS011;10876;49.038;10.608;2022-08-19T13:14:54;46.80;;;25.65;;
21430;SDS011;10876;49.038;10.608;2022-08-19T13:17:22;50.15;;;26.35;;
21430;SDS011;10876;49.038;10.608;2022-08-19T13:19:49;46.75;;;26.55;;
21430;SDS011;10876;49.038;10.608;2022-08-19T13:22:18;47.83;;;26.48;;
21430;SDS011;10876;49.038;10.608;2022-08-19T13:24:45;45.20;;;25.75;;
21430;SDS011;10876;49.038;10.608;2022-08-19T13:27:11;45.15;;;24.52;;
21430;SDS011;10876;49.038;10.608;2022-08-19T13:29:39;50.75;;;25.63;;
21430;SDS011;10876;49.038;10.608;2022-08-19T13:32:23;47.42;;;25.55;;
21430;SDS011;10876;49.038;10.608;2022-08-19T13:35:08;52.88;;;25.83;;
21430;SDS011;10876;49.038;10.608;2022-08-19T13:37:36;47.92;;;25.35;;
21430;SDS011;10876;49.038;10.608;2022-08-19T13:40:13;51.20;;;26.45;;
21430;SDS011;10876;49.038;10.608;2022-08-19T13:42:43;44.13;;;25.08;;
21430;SDS011;10876;49.038;10.608;2022-08-19T13:45:11;41.97;;;25.80;;
21430;SDS011;10876;49.038;10.608;2022-08-19T13:47:39;47.47;;;25.85;;
21430;SDS011;10876;49.038;10.608;2022-08-19T13:50:09;47.75;;;25.33;;
21430;SDS011;10876;49.038;10.608;2022-08-19T13:52:39;44.20;;;25.02;;
21430;SDS011;10876;49.038;10.608;2022-08-19T13:55:06;49.20;;;25.70;;
21430;SDS011;10876;49.038;10.608;2022-08-19T13:57:34;42.60;;;24.17;;
21430;SDS011;10876;49.038;10.608;2022-08-19T14:00:04;44.83;;;24.08;;
21430;SDS011;10876;49.038;10.608;2022-08-19T14:02:34;46.60;;;24.83;;
21430;SDS011;10876;49.038;10.608;2022-08-19T14:05:03;47.25;;;26.50;;
21430;SDS011;10876;49.038;10.608;2022-08-19T14:07:30;47.90;;;24.90;;
21430;SDS011;10876;49.038;10.608;2022-08-19T14:09:59;49.90;;;25.88;;
21430;SDS011;10876;49.038;10.608;2022-08-19T14:12:26;45.85;;;24.92;;
21430;SDS011;10876;49.038;10.608;2022-08-19T14:14:53;44.97;;;24.33;;
21430;SDS011;10876;49.038;10.608;2022-08-19T14:17:20;48.63;;;26.55;;
21430;SDS011;10876;49.038;10.608;2022-08-19T14:19:47;45.92;;;24.75;;
21430;SDS011;10876;49.038;10.608;2022-08-19T14:22:14;44.40;;;24.08;;